Time;durP1;ratioP1;P1;durP2;ratioP2;P2;SDS_P1;SDS_P2;PMS_P1;PMS_P2;Temp;Humidity;BMP_temperature;BMP_pressure;BME280_temperature;BME280_humidity;BME280_pressure;Samples;Min_cycle;Max_cycle;Signal;HPM_P1;HPM_P2
2020/12/06 00:02:17;;;;;;;6.30;2.70;;;5.70;99.90;;;;;;5092124;28;20542;-47
2020/12/06 00:04:42;;;;;;;5.78;2.47;;;5.80;99.90;;;;;;5107600;28;20465;-47
2020/12/06 00:07:08;;;;;;;9.65;2.97;;;5.80;99.90;;;;;;5108285;28;20035;-47
2020/12/06 00:09:34;;;;;;;8.25;2.65;;;5.80;99.90;;;;;;5107722;28;20027;-47
2020/12/06 00:12:00;;;;;;;5.72;2.55;;;5.80;99.90;;;;;;5102462;28;20028;-47
2020/12/06 00:14:25;;;;;;;4.88;2.47;;;5.80;99.90;;;;;;5104831;28;20098;-46
2020/12/06 00:16:51;;;;;;;6.35;2.20;;;5.80;99.90;;;;;;5102192;28;20127;-47
2020/12/06 00:19:17;;;;;;;4.85;2.30;;;5.80;99.90;;;;;;5097499;28;20028;-47
2020/12/06 00:21:45;;;;;;;6.05;2.15;;;5.80;99.90;;;;;;5093801;28;20464;-45
2020/12/06 00:24:11;;;;;;;5.22;2.40;;;5.80;99.90;;;;;;5101858;28;20027;-46
2020/12/06 00:26:37;;;;;;;3.65;2.08;;;5.80;99.90;;;;;;5107437;28;20174;-45
2020/12/06 00:29:03;;;;;;;5.35;2.45;;;5.80;99.90;;;;;;5106757;28;20038;-45
2020/12/06 00:31:29;;;;;;;9.80;2.78;;;5.70;99.90;;;;;;5108110;28;20439;-47
2020/12/06 00:33:54;;;;;;;6.07;2.65;;;5.80;99.90;;;;;;5102933;28;20043;-45
2020/12/06 00:36:20;;;;;;;6.53;2.95;;;5.70;99.90;;;;;;5108088;28;20446;-47
2020/12/06 00:38:46;;;;;;;4.28;2.72;;;5.70;99.90;;;;;;5107385;28;20042;-47
2020/12/06 00:41:13;;;;;;;5.00;2.53;;;5.70;99.90;;;;;;5111724;28;20039;-46
2020/12/06 00:43:40;;;;;;;6.63;2.70;;;5.70;99.90;;;;;;5111626;28;20036;-45
2020/12/06 00:46:05;;;;;;;4.60;2.42;;;5.80;99.90;;;;;;5111565;28;20547;-46
2020/12/06 00:48:32;;;;;;;7.20;3.00;;;5.70;99.90;;;;;;5109221;27;20032;-46
2020/12/06 00:50:58;;;;;;;7.28;2.60;;;5.70;99.90;;;;;;5111433;28;20358;-46
2020/12/06 00:53:24;;;;;;;7.35;2.47;;;5.70;99.90;;;;;;5111368;28;20028;-46
2020/12/06 00:55:50;;;;;;;6.95;2.90;;;5.70;99.90;;;;;;5111585;28;20465;-46
2020/12/06 00:58:16;;;;;;;8.38;3.63;;;5.70;99.90;;;;;;5111234;28;20033;-47
2020/12/06 01:00:42;;;;;;;8.40;3.03;;;5.70;99.90;;;;;;5106574;27;20454;-46
2020/12/06 01:03:07;;;;;;;7.28;2.72;;;5.70;99.90;;;;;;5096005;27;20035;-47
2020/12/06 01:05:33;;;;;;;4.68;2.83;;;5.70;99.90;;;;;;5111560;28;20055;-47
2020/12/06 01:07:59;;;;;;;4.32;2.78;;;5.70;99.90;;;;;;5110928;28;20028;-47
2020/12/06 01:10:25;;;;;;;5.88;2.78;;;5.70;99.90;;;;;;5111487;28;20023;-47
2020/12/06 01:12:51;;;;;;;7.75;3.50;;;5.70;99.90;;;;;;5111268;28;20128;-47
2020/12/06 01:15:17;;;;;;;8.18;2.95;;;5.80;99.90;;;;;;5111404;28;20489;-47
2020/12/06 01:17:43;;;;;;;7.85;3.08;;;5.80;99.90;;;;;;5110007;27;20063;-49
2020/12/06 01:20:09;;;;;;;5.72;3.05;;;5.80;99.90;;;;;;5111293;28;20288;-51
2020/12/06 01:22:35;;;;;;;10.73;3.70;;;5.80;99.90;;;;;;5110877;28;20058;-49
2020/12/06 01:25:04;;;;;;;7.95;3.65;;;5.80;99.90;;;;;;5111364;28;20031;-49
2020/12/06 01:27:29;;;;;;;10.85;3.90;;;5.70;99.90;;;;;;5110484;28;20046;-48
2020/12/06 01:29:55;;;;;;;7.95;4.13;;;5.80;99.90;;;;;;5109334;28;20560;-51
2020/12/06 01:32:21;;;;;;;5.25;2.95;;;5.80;99.90;;;;;;5110505;28;20521;-49
2020/12/06 01:34:46;;;;;;;6.10;3.58;;;5.80;99.90;;;;;;5108915;28;20034;-50
2020/12/06 01:37:15;;;;;;;6.43;3.60;;;5.80;99.90;;;;;;5109973;28;20055;-48
2020/12/06 01:39:41;;;;;;;4.53;3.50;;;5.80;99.90;;;;;;5110157;28;20116;-50
2020/12/06 01:42:07;;;;;;;7.07;4.30;;;5.80;99.90;;;;;;5108331;28;20019;-50
2020/12/06 01:44:33;;;;;;;8.07;3.92;;;5.80;99.90;;;;;;5110356;28;20039;-50
2020/12/06 01:46:58;;;;;;;9.32;4.30;;;5.80;99.90;;;;;;5110149;28;20393;-48
2020/12/06 01:49:26;;;;;;;7.20;3.88;;;5.80;99.90;;;;;;5105090;27;20367;-51
2020/12/06 01:51:58;;;;;;;9.40;4.20;;;5.80;99.90;;;;;;5110887;28;20039;-51
2020/12/06 01:54:24;;;;;;;9.45;4.53;;;5.80;99.90;;;;;;5109895;28;20038;-51
2020/12/06 01:56:50;;;;;;;10.15;5.07;;;5.80;99.90;;;;;;5110608;28;20023;-50
2020/12/06 01:59:16;;;;;;;8.07;4.90;;;5.80;99.90;;;;;;5110269;28;20028;-49
2020/12/06 02:01:56;;;;;;;9.30;4.28;;;5.80;99.90;;;;;;5110401;28;20036;-49
2020/12/06 02:04:24;;;;;;;11.00;5.22;;;5.70;99.90;;;;;;5095694;27;20599;-49
2020/12/06 02:06:50;;;;;;;7.85;4.43;;;5.70;99.90;;;;;;5089385;28;20051;-51
2020/12/06 02:09:16;;;;;;;6.65;3.97;;;5.80;99.90;;;;;;5109032;28;20035;-51
2020/12/06 02:11:42;;;;;;;8.93;4.85;;;5.80;99.90;;;;;;5108934;28;20042;-49
2020/12/06 02:14:11;;;;;;;10.20;4.88;;;5.80;99.90;;;;;;5108952;28;20413;-50
2020/12/06 02:16:37;;;;;;;8.88;4.70;;;5.80;99.90;;;;;;5108144;28;20031;-51
2020/12/06 02:19:08;;;;;;;12.60;5.88;;;5.80;99.90;;;;;;5105774;28;20043;-51
2020/12/06 02:21:39;;;;;;;11.63;5.80;;;5.70;99.90;;;;;;5109655;28;20031;-49
2020/12/06 02:24:06;;;;;;;7.60;4.85;;;5.80;99.90;;;;;;5109152;28;20507;-50
2020/12/06 02:26:43;;;;;;;9.07;4.80;;;5.80;99.90;;;;;;5109628;28;20040;-49
2020/12/06 02:29:09;;;;;;;13.85;5.18;;;5.80;99.90;;;;;;5108908;28;20126;-50
2020/12/06 02:31:35;;;;;;;10.10;5.65;;;5.70;99.90;;;;;;5097139;27;20042;-49
2020/12/06 02:34:01;;;;;;;13.68;6.00;;;5.70;99.90;;;;;;5089457;28;20039;-48
2020/12/06 02:36:27;;;;;;;9.85;5.40;;;5.70;99.90;;;;;;5089232;28;20478;-48
2020/12/06 02:38:53;;;;;;;11.65;5.40;;;5.70;99.90;;;;;;5102986;28;20126;-49
2020/12/06 02:41:19;;;;;;;7.53;5.18;;;5.70;99.90;;;;;;5110243;28;20035;-49
2020/12/06 02:43:45;;;;;;;8.13;4.80;;;5.80;99.90;;;;;;5110085;28;20085;-49
2020/12/06 02:46:10;;;;;;;14.10;4.85;;;5.70;99.90;;;;;;5099872;28;20669;-49
2020/12/06 02:48:36;;;;;;;12.57;5.60;;;5.80;99.90;;;;;;5089991;28;20558;-52
2020/12/06 02:51:03;;;;;;;12.07;4.72;;;5.70;99.90;;;;;;5089847;28;20051;-49
2020/12/06 02:53:29;;;;;;;10.18;4.63;;;5.70;99.90;;;;;;5089899;28;20028;-49
2020/12/06 02:55:54;;;;;;;9.88;5.60;;;5.70;99.90;;;;;;5090496;28;20355;-50
2020/12/06 02:58:20;;;;;;;8.93;5.20;;;5.60;99.90;;;;;;5090738;28;20056;-48
2020/12/06 03:00:46;;;;;;;8.00;4.88;;;5.60;99.90;;;;;;5089001;28;20044;-50
2020/12/06 03:03:11;;;;;;;6.70;4.20;;;5.60;99.90;;;;;;5087932;28;20047;-49
2020/12/06 03:05:37;;;;;;;11.52;5.00;;;5.60;99.90;;;;;;5089634;28;20036;-51
2020/12/06 03:08:03;;;;;;;9.38;4.93;;;5.50;99.90;;;;;;5089509;28;20086;-49
2020/12/06 03:10:28;;;;;;;9.95;5.30;;;5.50;99.90;;;;;;5090250;28;20030;-50
2020/12/06 03:12:54;;;;;;;17.98;5.65;;;5.50;99.90;;;;;;5090115;28;20064;-49
2020/12/06 03:15:19;;;;;;;10.52;6.07;;;5.50;99.90;;;;;;5090505;28;20466;-50
2020/12/06 03:17:45;;;;;;;13.18;6.07;;;5.50;99.90;;;;;;5089605;28;20469;-49
2020/12/06 03:20:11;;;;;;;10.43;6.32;;;5.50;99.90;;;;;;5090131;28;20147;-48
2020/12/06 03:22:36;;;;;;;9.35;5.70;;;5.50;99.90;;;;;;5089693;28;20031;-50
2020/12/06 03:25:02;;;;;;;16.67;6.53;;;5.50;99.90;;;;;;5090010;28;20036;-49
2020/12/06 03:27:28;;;;;;;9.93;6.03;;;5.40;99.90;;;;;;5090044;28;20028;-49
2020/12/06 03:29:55;;;;;;;8.25;4.95;;;5.50;99.90;;;;;;5089800;28;20164;-49
2020/12/06 03:32:22;;;;;;;14.32;5.25;;;5.50;99.90;;;;;;5090001;28;20119;-49
2020/12/06 03:34:48;;;;;;;8.90;5.72;;;5.50;99.90;;;;;;5089917;28;20028;-48
2020/12/06 03:37:14;;;;;;;9.13;5.78;;;5.50;99.90;;;;;;5089299;28;20068;-48
2020/12/06 03:39:39;;;;;;;10.55;5.65;;;5.40;99.90;;;;;;5089912;28;20086;-50
2020/12/06 03:42:05;;;;;;;11.77;5.65;;;5.50;99.90;;;;;;5089840;28;20070;-48
2020/12/06 03:44:32;;;;;;;8.35;5.75;;;5.60;99.90;;;;;;5099261;28;20126;-48
2020/12/06 03:46:57;;;;;;;11.50;5.68;;;5.60;99.90;;;;;;5109830;28;20089;-50
2020/12/06 03:49:23;;;;;;;11.00;6.10;;;5.60;99.90;;;;;;5109999;28;20047;-48
2020/12/06 03:51:49;;;;;;;10.13;5.65;;;5.50;99.90;;;;;;5109973;28;20142;-49
2020/12/06 03:54:14;;;;;;;8.40;6.10;;;5.60;99.90;;;;;;5110205;28;20030;-49
2020/12/06 03:56:40;;;;;;;12.65;5.55;;;5.60;99.90;;;;;;5110343;28;20028;-50
2020/12/06 03:59:05;;;;;;;10.77;6.53;;;5.50;99.90;;;;;;5110190;28;20032;-48
2020/12/06 04:01:31;;;;;;;13.07;6.53;;;5.60;99.90;;;;;;5109797;28;20452;-49
2020/12/06 04:03:57;;;;;;;9.98;6.38;;;5.50;99.90;;;;;;5109929;28;20035;-49
2020/12/06 04:06:22;;;;;;;12.55;6.43;;;5.60;99.90;;;;;;5109137;28;20035;-48
2020/12/06 04:08:48;;;;;;;10.20;5.95;;;5.50;99.90;;;;;;5109981;28;20019;-48
2020/12/06 04:11:13;;;;;;;9.52;6.45;;;5.60;99.90;;;;;;5109172;28;20035;-49
2020/12/06 04:13:39;;;;;;;16.10;6.65;;;5.60;99.90;;;;;;5110213;28;20712;-49
2020/12/06 04:16:05;;;;;;;11.85;7.00;;;5.60;99.90;;;;;;5113540;28;20515;-48
2020/12/06 04:18:30;;;;;;;14.52;7.70;;;5.50;99.90;;;;;;5113528;28;20454;-48
2020/12/06 04:20:56;;;;;;;16.98;7.60;;;5.50;99.90;;;;;;5113259;28;20422;-48
2020/12/06 04:23:22;;;;;;;15.43;7.53;;;5.50;99.90;;;;;;5111981;28;20035;-49
2020/12/06 04:25:47;;;;;;;17.10;7.72;;;5.50;99.90;;;;;;5114196;28;20106;-49
2020/12/06 04:28:13;;;;;;;14.63;7.70;;;5.50;99.90;;;;;;5113248;28;20042;-48
2020/12/06 04:30:38;;;;;;;12.30;7.22;;;5.50;99.90;;;;;;5113402;28;20023;-49
2020/12/06 04:33:04;;;;;;;18.80;7.55;;;5.60;99.90;;;;;;5113396;28;20027;-49
2020/12/06 04:35:30;;;;;;;11.63;7.05;;;5.50;99.90;;;;;;5113108;28;20043;-48
2020/12/06 04:37:56;;;;;;;10.65;7.60;;;5.60;99.90;;;;;;5113545;28;20127;-48
2020/12/06 04:40:22;;;;;;;20.67;8.23;;;5.50;99.90;;;;;;5113537;28;20499;-49
2020/12/06 04:42:48;;;;;;;15.98;7.55;;;5.60;99.90;;;;;;5113791;28;20107;-48
2020/12/06 04:45:16;;;;;;;13.60;6.90;;;5.60;99.90;;;;;;5113469;28;20031;-48
2020/12/06 04:47:56;;;;;;;12.50;7.25;;;5.60;99.90;;;;;;5113123;28;20111;-48
2020/12/06 04:50:45;;;;;;;12.57;7.22;;;5.60;99.90;;;;;;5113614;28;20113;-47
2020/12/06 04:53:17;;;;;;;11.30;7.32;;;5.70;99.90;;;;;;5113298;28;20032;-48
2020/12/06 04:55:46;;;;;;;21.48;8.05;;;5.60;99.90;;;;;;5112800;28;20057;-48
2020/12/06 04:58:18;;;;;;;11.80;7.22;;;5.60;99.90;;;;;;5113243;28;20047;-48
2020/12/06 05:00:44;;;;;;;15.98;7.85;;;5.60;99.90;;;;;;5112803;28;20034;-49
2020/12/06 05:03:12;;;;;;;11.30;7.85;;;5.60;99.90;;;;;;5112916;28;20094;-49
2020/12/06 05:05:39;;;;;;;15.73;7.72;;;5.60;99.90;;;;;;5113034;28;20027;-48
2020/12/06 05:08:10;;;;;;;16.30;7.82;;;5.60;99.90;;;;;;5112497;28;20040;-48
2020/12/06 05:10:38;;;;;;;17.20;8.65;;;5.50;99.90;;;;;;5113089;28;20076;-48
2020/12/06 05:13:05;;;;;;;17.27;7.70;;;5.50;99.90;;;;;;5112636;28;20039;-48
2020/12/06 05:15:31;;;;;;;13.27;7.00;;;5.50;99.90;;;;;;5112880;28;20541;-49
2020/12/06 05:17:58;;;;;;;14.10;8.02;;;5.50;99.90;;;;;;5112491;28;20103;-49
2020/12/06 05:20:25;;;;;;;14.70;8.48;;;5.40;99.90;;;;;;5112675;28;20028;-49
2020/12/06 05:22:51;;;;;;;18.73;8.27;;;5.40;99.90;;;;;;5112638;28;20045;-49
2020/12/06 05:25:18;;;;;;;14.75;7.75;;;5.40;99.90;;;;;;5112127;28;20035;-48
2020/12/06 05:27:43;;;;;;;14.25;9.23;;;5.40;99.90;;;;;;5112274;28;20036;-49
2020/12/06 05:30:10;;;;;;;15.73;9.82;;;5.50;99.90;;;;;;5112007;28;20148;-48
2020/12/06 05:32:36;;;;;;;15.30;9.85;;;5.50;99.90;;;;;;5112104;28;20026;-51
2020/12/06 05:35:03;;;;;;;16.35;9.35;;;5.50;99.90;;;;;;5112487;28;20047;-49
2020/12/06 05:37:30;;;;;;;19.38;9.38;;;5.60;99.90;;;;;;5111827;28;20051;-49
2020/12/06 05:40:09;;;;;;;19.75;9.80;;;5.60;99.90;;;;;;5110685;28;20039;-51
2020/12/06 05:42:36;;;;;;;17.30;10.52;;;5.50;99.90;;;;;;5111926;28;20039;-48
2020/12/06 05:45:03;;;;;;;17.20;9.98;;;5.50;99.90;;;;;;5111864;28;20397;-48
2020/12/06 05:47:29;;;;;;;15.55;9.98;;;5.50;99.90;;;;;;5104413;27;20107;-49
2020/12/06 05:49:56;;;;;;;15.75;9.98;;;5.50;99.90;;;;;;5102465;27;20053;-49
2020/12/06 05:52:27;;;;;;;18.52;10.65;;;5.50;99.90;;;;;;5110941;27;20047;-48
2020/12/06 05:54:57;;;;;;;20.35;10.65;;;5.60;99.90;;;;;;5111196;28;20032;-48
2020/12/06 05:57:28;;;;;;;22.65;12.00;;;5.50;99.90;;;;;;5111182;28;20031;-48
2020/12/06 06:00:01;;;;;;;20.63;11.73;;;5.50;99.90;;;;;;5110036;28;20038;-48
2020/12/06 06:02:27;;;;;;;17.27;11.38;;;5.50;99.90;;;;;;5096812;27;20048;-49
2020/12/06 06:05:02;;;;;;;30.88;12.65;;;5.50;99.90;;;;;;5088812;28;20060;-49
2020/12/06 06:07:30;;;;;;;19.55;11.57;;;5.50;99.90;;;;;;5094486;28;20505;-49
2020/12/06 06:10:06;;;;;;;31.63;12.45;;;5.60;99.90;;;;;;5110119;28;20042;-49
2020/12/06 06:12:42;;;;;;;20.20;12.95;;;5.60;99.90;;;;;;5109671;28;20038;-47
2020/12/06 06:15:07;;;;;;;28.98;14.02;;;5.50;99.90;;;;;;5109258;28;20030;-48
2020/12/06 06:17:33;;;;;;;21.88;12.32;;;5.50;99.90;;;;;;5109856;28;20042;-48
2020/12/06 06:19:59;;;;;;;22.92;14.13;;;5.60;99.90;;;;;;5109435;28;20035;-48
2020/12/06 06:22:31;;;;;;;25.60;13.35;;;5.60;99.90;;;;;;5109467;28;20044;-48
2020/12/06 06:24:59;;;;;;;22.90;13.27;;;5.50;99.90;;;;;;5109959;28;20035;-48
2020/12/06 06:27:30;;;;;;;21.90;11.43;;;5.60;99.90;;;;;;5109488;28;20104;-48
2020/12/06 06:29:55;;;;;;;23.45;12.48;;;5.70;99.90;;;;;;5109378;28;20046;-48
2020/12/06 06:32:22;;;;;;;19.90;11.63;;;5.80;99.90;;;;;;5109422;28;20385;-48
2020/12/06 06:34:49;;;;;;;23.52;12.98;;;5.70;99.90;;;;;;5109664;28;20470;-47
2020/12/06 06:37:17;;;;;;;21.50;12.25;;;5.70;99.90;;;;;;5108250;28;20059;-48
2020/12/06 06:39:43;;;;;;;21.10;12.05;;;5.70;99.90;;;;;;5109724;28;20044;-48
2020/12/06 06:42:12;;;;;;;21.10;12.30;;;5.70;99.90;;;;;;5108845;28;20476;-49
2020/12/06 06:44:43;;;;;;;20.92;12.52;;;5.80;99.90;;;;;;5101819;28;20367;-48
2020/12/06 06:47:11;;;;;;;24.30;13.57;;;5.70;99.90;;;;;;5091423;28;20489;-48
2020/12/06 06:49:57;;;;;;;27.30;13.02;;;5.70;99.90;;;;;;5108922;28;20038;-49
2020/12/06 06:52:24;;;;;;;21.02;13.57;;;5.60;99.90;;;;;;5108324;28;20036;-48
2020/12/06 06:54:52;;;;;;;23.42;13.85;;;5.60;99.90;;;;;;5109275;28;20031;-47
2020/12/06 06:57:20;;;;;;;21.60;13.43;;;5.70;99.90;;;;;;5104646;28;20070;-48
2020/12/06 06:59:48;;;;;;;22.95;13.90;;;5.60;99.90;;;;;;5100300;28;20047;-48
2020/12/06 07:02:42;;;;;;;27.95;14.38;;;5.60;99.90;;;;;;5106049;28;20047;-47
2020/12/06 07:05:14;;;;;;;;;;;5.50;99.90;;;;;;5095246;27;20031;-48
2020/12/06 07:07:43;;;;;;;25.70;13.48;;;5.60;99.90;;;;;;5108318;27;19911;-50
2020/12/06 07:10:13;;;;;;;23.15;13.27;;;5.60;99.90;;;;;;5110787;27;20146;-48
2020/12/06 07:12:46;;;;;;;23.77;14.88;;;5.60;99.90;;;;;;5103305;27;20033;-48
2020/12/06 07:15:12;;;;;;;25.98;15.23;;;5.60;99.90;;;;;;5106582;27;20724;-47
2020/12/06 07:17:39;;;;;;;29.83;15.35;;;5.60;99.90;;;;;;5111048;27;20092;-48
2020/12/06 07:20:07;;;;;;;26.05;16.05;;;5.50;99.90;;;;;;5105746;27;20035;-48
2020/12/06 07:22:33;;;;;;;34.60;18.13;;;5.60;99.90;;;;;;5116578;27;20151;-48
2020/12/06 07:25:00;;;;;;;27.00;17.40;;;5.50;99.90;;;;;;5118339;27;20520;-48
2020/12/06 07:27:26;;;;;;;25.40;16.77;;;5.60;99.90;;;;;;5113964;27;20073;-48
2020/12/06 07:29:52;;;;;;;28.50;17.48;;;5.60;99.90;;;;;;5122969;27;20038;-47
2020/12/06 07:32:21;;;;;;;26.63;16.75;;;5.60;99.90;;;;;;5100991;28;20031;-47
2020/12/06 07:34:50;;;;;;;28.92;17.20;;;5.50;99.90;;;;;;5118647;27;20065;-48
2020/12/06 07:37:16;;;;;;;26.83;16.98;;;5.50;99.90;;;;;;5110936;28;20142;-48
2020/12/06 07:39:46;;;;;;;25.45;16.75;;;5.50;99.90;;;;;;5122292;28;20043;-47
2020/12/06 07:42:27;;;;;;;27.38;15.73;;;5.50;99.90;;;;;;5106893;28;20400;-47
2020/12/06 07:44:55;;;;;;;27.98;16.35;;;5.50;99.90;;;;;;5113844;28;20486;-47
2020/12/06 07:47:21;;;;;;;23.00;16.08;;;5.50;99.90;;;;;;5104895;28;20435;-47
2020/12/06 07:49:52;;;;;;;26.98;16.73;;;5.50;99.90;;;;;;5115801;27;20050;-48
2020/12/06 07:52:19;;;;;;;23.25;15.73;;;5.50;99.90;;;;;;5124107;27;20030;-48
2020/12/06 07:54:56;;;;;;;29.63;16.55;;;5.50;99.90;;;;;;5119601;27;20023;-48
2020/12/06 07:57:49;;;;;;;27.73;17.48;;;5.50;99.90;;;;;;5119708;27;20038;-48
2020/12/06 08:00:19;;;;;;;31.83;17.40;;;5.50;99.90;;;;;;5107044;27;20038;-48
2020/12/06 08:02:48;;;;;;;30.83;16.73;;;5.40;99.90;;;;;;5108401;27;20050;-48
2020/12/06 08:05:19;;;;;;;28.45;16.92;;;5.50;99.90;;;;;;5093309;27;20031;-48
2020/12/06 08:07:47;;;;;;;31.75;16.88;;;5.50;99.90;;;;;;5104732;27;20413;-48
2020/12/06 08:10:16;;;;;;;31.90;18.63;;;5.50;99.90;;;;;;5096535;27;20069;-48
2020/12/06 08:12:44;;;;;;;28.58;17.88;;;5.50;99.90;;;;;;5098936;27;20066;-47
2020/12/06 08:15:11;;;;;;;30.02;16.80;;;5.50;99.90;;;;;;5100349;27;20115;-48
2020/12/06 08:17:44;;;;;;;27.48;17.55;;;5.50;99.90;;;;;;5107239;27;20070;-48
2020/12/06 08:20:11;;;;;;;38.67;17.58;;;5.50;99.90;;;;;;5095707;27;20052;-46
2020/12/06 08:22:50;;;;;;;26.50;16.98;;;5.50;99.90;;;;;;5100278;27;20070;-47
2020/12/06 08:25:20;;;;;;;29.65;17.73;;;5.50;99.90;;;;;;5101995;27;20585;-48
2020/12/06 08:27:47;;;;;;;26.77;16.58;;;5.60;99.90;;;;;;5107686;27;20473;-48
2020/12/06 08:30:17;;;;;;;26.40;15.65;;;5.50;99.90;;;;;;5104105;27;20039;-48
2020/12/06 08:32:50;;;;;;;31.25;17.35;;;5.60;99.90;;;;;;5105893;27;20042;-49
2020/12/06 08:35:16;;;;;;;29.73;16.40;;;5.60;99.90;;;;;;5102878;27;20657;-48
2020/12/06 08:37:42;;;;;;;27.38;16.48;;;5.60;99.90;;;;;;5101079;27;20043;-48
2020/12/06 08:40:09;;;;;;;32.30;17.20;;;5.50;99.90;;;;;;5103092;27;20039;-47
2020/12/06 08:42:35;;;;;;;25.65;16.58;;;5.50;99.90;;;;;;5090681;27;20044;-47
2020/12/06 08:45:01;;;;;;;29.70;16.48;;;5.60;99.90;;;;;;5093785;27;20039;-47
2020/12/06 08:47:43;;;;;;;29.27;16.85;;;5.70;99.90;;;;;;5097546;27;20466;-46
2020/12/06 08:50:14;;;;;;;27.52;15.07;;;5.60;99.90;;;;;;5094072;27;22517;-47
2020/12/06 08:52:40;;;;;;;30.55;16.77;;;5.70;99.90;;;;;;5098364;27;20066;-47
2020/12/06 08:55:25;;;;;;;24.10;15.55;;;5.70;99.90;;;;;;5098776;27;20084;-47
2020/12/06 08:57:52;;;;;;;28.85;16.48;;;5.80;99.90;;;;;;5096263;27;20024;-49
2020/12/06 09:00:17;;;;;;;26.60;16.00;;;5.70;99.90;;;;;;5093407;27;20047;-48
2020/12/06 09:02:43;;;;;;;32.33;17.33;;;5.80;99.90;;;;;;5099046;27;20437;-48
2020/12/06 09:05:09;;;;;;;30.83;16.83;;;5.80;99.90;;;;;;5094124;27;20032;-47
2020/12/06 09:07:34;;;;;;;24.98;15.57;;;5.80;99.90;;;;;;5106577;27;20496;-48
2020/12/06 09:10:00;;;;;;;28.23;16.75;;;5.90;99.90;;;;;;5123822;27;20477;-47
2020/12/06 09:12:28;;;;;;;27.00;16.52;;;5.90;99.90;;;;;;5116233;27;20028;-48
2020/12/06 09:14:53;;;;;;;26.60;15.65;;;5.90;99.90;;;;;;5102009;27;20385;-47
2020/12/06 09:17:19;;;;;;;27.08;16.90;;;5.90;99.90;;;;;;5094819;27;20036;-47
2020/12/06 09:19:45;;;;;;;32.70;17.20;;;5.90;99.90;;;;;;5097195;27;20371;-47
2020/12/06 09:22:10;;;;;;;29.83;16.50;;;6.00;99.90;;;;;;5097937;27;20050;-46
2020/12/06 09:24:36;;;;;;;26.75;15.65;;;6.10;99.90;;;;;;5111736;27;20032;-47
2020/12/06 09:27:01;;;;;;;26.13;15.70;;;6.10;99.90;;;;;;5103626;27;20028;-47
2020/12/06 09:29:27;;;;;;;25.00;16.25;;;6.00;99.90;;;;;;5109929;27;20032;-47
2020/12/06 09:31:53;;;;;;;31.05;18.10;;;6.10;99.90;;;;;;5107641;27;20016;-47
2020/12/06 09:34:18;;;;;;;33.08;18.83;;;6.10;99.90;;;;;;5105519;27;20031;-47
2020/12/06 09:36:44;;;;;;;29.25;17.98;;;6.10;99.90;;;;;;5099864;27;20066;-47
2020/12/06 09:39:10;;;;;;;27.77;17.65;;;6.20;99.90;;;;;;5102267;27;20038;-47
2020/12/06 09:41:38;;;;;;;30.67;19.50;;;6.20;99.90;;;;;;5099802;27;20115;-47
2020/12/06 09:44:07;;;;;;;32.28;18.52;;;6.20;99.90;;;;;;5094969;27;20047;-47
2020/12/06 09:46:32;;;;;;;30.92;18.98;;;6.10;99.90;;;;;;5099891;27;20122;-47
2020/12/06 09:48:58;;;;;;;29.60;17.40;;;6.20;99.90;;;;;;5111900;27;20041;-48
2020/12/06 09:51:24;;;;;;;32.97;19.65;;;6.20;99.90;;;;;;5100365;27;20032;-47
2020/12/06 09:53:49;;;;;;;37.58;20.90;;;6.20;99.90;;;;;;5096460;28;20031;-46
2020/12/06 09:56:15;;;;;;;28.50;18.13;;;6.30;99.90;;;;;;5106072;28;20362;-46
2020/12/06 09:58:41;;;;;;;32.17;19.83;;;6.40;99.90;;;;;;5106519;27;20031;-49
2020/12/06 10:01:10;;;;;;;37.67;18.10;;;6.50;99.90;;;;;;5107124;27;20027;-46
2020/12/06 10:03:38;;;;;;;33.90;17.98;;;6.70;99.90;;;;;;5095538;27;20085;-46
2020/12/06 10:06:04;;;;;;;31.20;17.75;;;6.80;99.90;;;;;;5108521;27;20066;-47
2020/12/06 10:08:29;;;;;;;32.08;16.80;;;6.90;99.90;;;;;;5111362;27;20063;-47
2020/12/06 10:10:55;;;;;;;30.40;18.05;;;6.90;99.90;;;;;;5123842;27;20112;-48
2020/12/06 10:13:21;;;;;;;27.60;16.33;;;7.00;99.90;;;;;;5107756;27;20422;-47
2020/12/06 10:15:47;;;;;;;33.60;15.23;;;7.10;99.90;;;;;;5106640;28;20098;-50
2020/12/06 10:18:12;;;;;;;31.05;17.23;;;7.10;99.90;;;;;;5106094;28;20040;-47
2020/12/06 10:20:38;;;;;;;28.30;17.02;;;7.10;99.90;;;;;;5109426;28;20072;-48
2020/12/06 10:23:04;;;;;;;25.42;15.98;;;7.00;99.90;;;;;;5107148;28;20039;-48
2020/12/06 10:25:29;;;;;;;26.13;14.90;;;7.00;99.90;;;;;;5109266;28;20390;-47
2020/12/06 10:27:55;;;;;;;23.83;15.65;;;7.00;99.90;;;;;;5109011;28;20036;-47
2020/12/06 10:30:21;;;;;;;23.92;15.45;;;7.00;99.90;;;;;;5109043;28;20031;-47
2020/12/06 10:32:46;;;;;;;23.50;14.98;;;7.10;99.90;;;;;;5108729;27;20032;-47
2020/12/06 10:35:12;;;;;;;22.65;14.48;;;7.10;99.90;;;;;;5108621;28;20085;-47
2020/12/06 10:37:38;;;;;;;24.70;14.45;;;7.10;99.90;;;;;;5108885;28;20055;-49
2020/12/06 10:40:04;;;;;;;25.45;14.65;;;7.20;99.90;;;;;;5109143;28;20034;-48
2020/12/06 10:42:30;;;;;;;26.35;13.60;;;7.20;99.90;;;;;;5103405;28;20430;-46
2020/12/06 10:44:55;;;;;;;24.58;15.13;;;7.30;99.90;;;;;;5102657;27;20044;-47
2020/12/06 10:47:21;;;;;;;25.20;15.82;;;7.30;99.90;;;;;;5094335;28;20057;-47
2020/12/06 10:49:47;;;;;;;23.02;14.27;;;7.40;99.90;;;;;;5105997;28;20034;-47
2020/12/06 10:52:13;;;;;;;25.33;14.57;;;7.40;99.90;;;;;;5111679;27;20035;-49
2020/12/06 10:54:38;;;;;;;25.88;12.95;;;7.30;99.90;;;;;;5098177;28;20031;-47
2020/12/06 10:57:05;;;;;;;25.67;13.25;;;7.40;99.90;;;;;;5108294;27;20031;-47
2020/12/06 10:59:31;;;;;;;24.65;13.77;;;7.40;99.90;;;;;;5100185;28;20023;-47
2020/12/06 11:01:58;;;;;;;22.15;13.32;;;7.40;99.90;;;;;;5105549;28;20035;-46
2020/12/06 11:04:23;;;;;;;30.35;15.50;;;7.60;99.90;;;;;;5101698;28;20027;-46
2020/12/06 11:06:49;;;;;;;29.13;14.55;;;7.70;99.90;;;;;;5103054;28;20043;-46
2020/12/06 11:09:15;;;;;;;28.55;15.68;;;7.60;99.90;;;;;;5091338;27;20063;-47
2020/12/06 11:11:41;;;;;;;25.23;13.82;;;7.70;99.90;;;;;;5089162;28;20031;-47
2020/12/06 11:14:06;;;;;;;24.98;13.02;;;7.60;99.90;;;;;;5086548;28;20134;-47
2020/12/06 11:16:32;;;;;;;28.95;14.77;;;7.70;99.90;;;;;;5090757;28;20036;-46
2020/12/06 11:18:58;;;;;;;25.02;14.73;;;7.70;99.90;;;;;;5085131;28;20059;-45
2020/12/06 11:21:23;;;;;;;25.45;13.80;;;7.80;99.90;;;;;;5086482;28;20055;-44
2020/12/06 11:23:49;;;;;;;36.35;15.63;;;7.80;99.90;;;;;;5086379;27;20460;-45
2020/12/06 11:26:17;;;;;;;27.95;13.93;;;7.90;99.90;;;;;;5087908;27;20100;-45
2020/12/06 11:28:45;;;;;;;21.38;13.50;;;8.00;99.90;;;;;;5087952;28;20027;-45
2020/12/06 11:31:11;;;;;;;27.92;14.32;;;8.00;99.90;;;;;;5105579;27;20116;-48
2020/12/06 11:33:37;;;;;;;28.90;14.40;;;8.00;99.90;;;;;;5094261;28;20030;-46
2020/12/06 11:36:04;;;;;;;30.42;15.98;;;7.90;99.90;;;;;;5093751;28;20031;-47
2020/12/06 11:38:30;;;;;;;28.40;14.52;;;7.80;99.90;;;;;;5105345;28;20054;-45
2020/12/06 11:40:56;;;;;;;32.80;16.17;;;7.70;99.90;;;;;;5105182;28;20118;-47
2020/12/06 11:43:22;;;;;;;26.95;15.02;;;7.60;99.90;;;;;;5107616;28;20576;-47
2020/12/06 11:45:48;;;;;;;34.20;16.60;;;7.60;99.90;;;;;;5108073;28;20497;-45
2020/12/06 11:48:13;;;;;;;36.58;17.60;;;7.60;99.90;;;;;;5099753;28;20121;-47
2020/12/06 11:50:39;;;;;;;33.42;16.48;;;7.80;99.90;;;;;;5101495;28;20038;-47
2020/12/06 11:53:05;;;;;;;29.80;15.93;;;7.90;99.90;;;;;;5094966;28;20088;-47
2020/12/06 11:55:30;;;;;;;32.67;14.90;;;8.00;99.90;;;;;;5092935;28;20036;-47
2020/12/06 11:57:56;;;;;;;28.35;15.48;;;8.10;99.90;;;;;;5102001;28;20063;-46
2020/12/06 12:00:22;;;;;;;56.45;20.05;;;8.40;99.90;;;;;;5106736;28;20583;-47
2020/12/06 12:02:48;;;;;;;33.97;16.55;;;8.50;99.90;;;;;;5096088;28;20100;-47
2020/12/06 12:05:14;;;;;;;24.45;14.05;;;8.80;99.90;;;;;;5094567;28;20043;-48
2020/12/06 12:07:41;;;;;;;28.20;15.15;;;8.90;99.90;;;;;;5093125;28;20036;-46
2020/12/06 12:10:08;;;;;;;23.25;12.55;;;9.00;99.90;;;;;;5101587;28;20027;-46
2020/12/06 12:12:34;;;;;;;21.13;11.73;;;9.00;99.90;;;;;;5107253;28;20032;-46
2020/12/06 12:15:00;;;;;;;19.05;11.02;;;9.20;99.90;;;;;;5098590;28;20350;-46
2020/12/06 12:17:25;;;;;;;19.83;10.98;;;9.20;99.90;;;;;;5096671;28;20040;-46
2020/12/06 12:19:51;;;;;;;18.73;10.95;;;9.40;99.90;;;;;;5097258;28;20036;-47
2020/12/06 12:22:20;;;;;;;17.02;9.50;;;9.60;99.90;;;;;;5089111;28;20505;-48
2020/12/06 12:24:47;;;;;;;16.63;9.20;;;10.10;99.90;;;;;;5105328;28;20525;-47
2020/12/06 12:27:13;;;;;;;15.63;9.02;;;10.80;99.90;;;;;;5096180;28;20043;-47
2020/12/06 12:29:39;;;;;;;14.45;8.45;;;11.50;99.90;;;;;;5086231;28;20035;-46
2020/12/06 12:32:05;;;;;;;17.05;9.02;;;11.80;99.90;;;;;;5087053;28;20032;-49
2020/12/06 12:34:30;;;;;;;12.20;7.93;;;11.80;99.90;;;;;;5107710;28;20516;-47
2020/12/06 12:36:56;;;;;;;21.02;8.57;;;11.60;99.90;;;;;;5110003;28;20086;-47
2020/12/06 12:39:22;;;;;;;21.23;8.95;;;11.50;99.90;;;;;;5111081;28;20035;-47
2020/12/06 12:41:50;;;;;;;12.75;8.90;;;11.10;99.90;;;;;;5111866;28;20035;-46
2020/12/06 12:44:15;;;;;;;16.63;8.73;;;10.90;99.90;;;;;;5111065;28;20096;-46